createdAt,value
2023-03-02T00:02:03.474Z,21.83
2023-03-02T00:05:02.189Z,21.23
2023-03-02T00:07:34.367Z,21.15
2023-03-02T00:10:01.140Z,23.80
2023-03-02T00:12:29.170Z,27.98
2023-03-02T00:14:55.611Z,27.52
2023-03-02T00:17:27.750Z,25.25
2023-03-02T00:19:55.457Z,28.80
2023-03-02T00:22:21.916Z,27.77
2023-03-02T00:24:48.363Z,30.00
2023-03-02T00:27:14.837Z,30.20
2023-03-02T00:29:42.183Z,27.88
2023-03-02T00:34:35.543Z,29.73
2023-03-02T00:37:02.002Z,33.33
2023-03-02T00:39:28.472Z,32.65
2023-03-02T00:41:54.892Z,28.90
2023-03-02T00:44:21.397Z,32.17
2023-03-02T00:46:47.953Z,39.63
2023-03-02T00:49:14.563Z,37.63
2023-03-02T00:51:41.073Z,41.05
2023-03-02T00:54:07.537Z,37.13
2023-03-02T00:56:34.260Z,41.28
2023-03-02T00:59:11.176Z,36.77
2023-03-02T01:01:37.827Z,37.83
2023-03-02T01:04:04.459Z,42.85
2023-03-02T01:06:31.272Z,45.05
2023-03-02T01:08:57.951Z,42.08
2023-03-02T01:11:24.351Z,43.87
2023-03-02T01:13:50.811Z,40.10
2023-03-02T01:16:17.438Z,42.65
2023-03-02T01:18:43.990Z,37.88
2023-03-02T01:21:15.502Z,35.45
2023-03-02T01:23:42.363Z,40.70
2023-03-02T01:26:09.204Z,37.05
2023-03-02T01:28:36.026Z,37.58
2023-03-02T01:31:04.500Z,36.42
2023-03-02T01:33:31.757Z,38.28
2023-03-02T01:35:58.339Z,41.17
2023-03-02T01:38:24.921Z,40.13
2023-03-02T01:40:51.433Z,38.08
2023-03-02T01:43:18.200Z,41.10
2023-03-02T01:45:48.903Z,38.90
2023-03-02T01:48:18.546Z,44.97
2023-03-02T01:50:45.330Z,39.65
2023-03-02T01:53:14.339Z,45.47
2023-03-02T01:55:40.949Z,39.95
2023-03-02T01:58:08.290Z,43.30
2023-03-02T02:00:38.125Z,42.20
2023-03-02T02:03:20.977Z,38.80
2023-03-02T02:05:59.592Z,45.92
2023-03-02T02:08:26.243Z,42.30
2023-03-02T02:10:54.123Z,46.00
2023-03-02T02:13:20.795Z,46.93
2023-03-02T02:15:47.316Z,44.60
2023-03-02T02:18:14.069Z,48.35
2023-03-02T02:20:45.333Z,44.25
2023-03-02T02:23:42.638Z,50.58
2023-03-02T02:26:47.887Z,42.30
2023-03-02T02:29:24.291Z,44.35
2023-03-02T02:32:17.402Z,48.75
2023-03-02T02:35:08.825Z,44.25
2023-03-02T02:37:43.757Z,46.30
2023-03-02T02:40:39.494Z,39.97
2023-03-02T02:43:07.488Z,41.30
2023-03-02T02:45:35.621Z,46.00
2023-03-02T02:48:02.235Z,46.90
2023-03-02T02:50:34.259Z,47.58
2023-03-02T02:53:13.021Z,41.27
2023-03-02T02:55:42.216Z,44.75
2023-03-02T02:58:23.956Z,43.78
2023-03-02T03:00:51.047Z,42.67
2023-03-02T03:03:30.902Z,47.67
2023-03-02T03:06:04.764Z,47.73
2023-03-02T03:08:46.268Z,42.95
2023-03-02T03:11:16.209Z,45.88
2023-03-02T03:13:44.407Z,44.47
2023-03-02T03:16:14.607Z,44.20
2023-03-02T03:18:47.096Z,44.43
2023-03-02T03:21:13.633Z,45.65
2023-03-02T03:23:40.099Z,44.95
2023-03-02T03:26:07.207Z,48.70
2023-03-02T03:28:33.806Z,42.28
2023-03-02T03:31:00.371Z,44.20
2023-03-02T03:33:27.070Z,40.47
2023-03-02T03:35:53.626Z,43.97
2023-03-02T03:38:20.482Z,41.20
2023-03-02T03:40:46.901Z,45.28
2023-03-02T03:43:15.165Z,44.07
2023-03-02T03:45:41.627Z,47.42
2023-03-02T03:48:08.172Z,48.15
2023-03-02T03:50:35.467Z,43.55
2023-03-02T03:53:03.833Z,44.00
2023-03-02T03:55:30.671Z,41.10
2023-03-02T03:57:57.093Z,44.40
2023-03-02T04:00:24.253Z,41.20
2023-03-02T04:02:50.993Z,45.30
2023-03-02T04:05:17.986Z,43.78
2023-03-02T04:07:44.571Z,39.60
2023-03-02T04:10:12.314Z,43.53
2023-03-02T04:12:40.828Z,40.40
2023-03-02T04:15:09.563Z,45.70
2023-03-02T04:17:36.005Z,43.58
2023-03-02T04:20:02.650Z,43.30
2023-03-02T04:22:29.119Z,41.55
2023-03-02T04:24:55.564Z,40.53
2023-03-02T04:27:22.023Z,40.67
2023-03-02T04:29:48.736Z,42.67
2023-03-02T04:32:15.336Z,37.03
2023-03-02T04:34:41.885Z,41.08
2023-03-02T04:37:08.376Z,40.00
2023-03-02T04:39:34.967Z,38.95
2023-03-02T04:42:01.629Z,41.03
2023-03-02T04:44:28.141Z,41.67
2023-03-02T04:46:54.691Z,41.85
2023-03-02T04:49:21.549Z,37.15
2023-03-02T04:51:49.354Z,43.13
2023-03-02T04:54:24.675Z,44.45
2023-03-02T04:56:51.787Z,39.77
2023-03-02T04:59:21.050Z,42.17
2023-03-02T05:01:48.591Z,42.45
2023-03-02T05:04:15.557Z,40.13
2023-03-02T05:06:42.144Z,41.42
2023-03-02T05:09:08.682Z,40.80
2023-03-02T05:11:35.843Z,40.33
2023-03-02T05:14:04.806Z,40.05
2023-03-02T05:16:34.165Z,37.10
2023-03-02T05:19:02.346Z,41.72
2023-03-02T05:21:28.908Z,33.93
2023-03-02T05:23:55.378Z,40.80
2023-03-02T05:26:21.867Z,37.65
2023-03-02T05:28:48.596Z,36.65
2023-03-02T05:31:22.027Z,40.03
2023-03-02T05:33:48.822Z,38.03
2023-03-02T05:36:18.931Z,40.58
2023-03-02T05:38:45.975Z,39.13
2023-03-02T05:41:12.497Z,39.92
2023-03-02T05:43:39.349Z,44.60
2023-03-02T05:46:05.839Z,38.17
2023-03-02T05:48:32.466Z,40.33
2023-03-02T05:50:59.134Z,41.65
2023-03-02T05:53:25.686Z,40.42
2023-03-02T05:55:52.673Z,37.25
2023-03-02T05:58:20.104Z,36.93
2023-03-02T06:00:48.427Z,42.17
2023-03-02T06:03:16.281Z,43.70
2023-03-02T06:05:42.873Z,43.28
2023-03-02T06:08:09.444Z,37.58
2023-03-02T06:10:36.438Z,35.73
2023-03-02T06:13:02.868Z,43.47
2023-03-02T06:15:29.697Z,38.85
2023-03-02T06:17:59.186Z,44.28
2023-03-02T06:20:25.680Z,43.28
2023-03-02T06:22:52.336Z,36.27
2023-03-02T06:25:23.934Z,36.22
2023-03-02T06:27:51.793Z,36.45
2023-03-02T06:30:23.315Z,39.63
2023-03-02T06:32:49.839Z,36.65
2023-03-02T06:35:16.700Z,42.93
2023-03-02T06:37:44.479Z,38.58
2023-03-02T06:40:12.044Z,43.28
2023-03-02T06:42:38.999Z,46.60
2023-03-02T06:45:06.773Z,44.03
2023-03-02T06:47:33.584Z,43.13
2023-03-02T06:50:00.493Z,38.63
2023-03-02T06:52:29.716Z,41.55
2023-03-02T06:54:56.467Z,44.65
2023-03-02T06:57:23.151Z,40.40
2023-03-02T06:59:49.579Z,43.27
2023-03-02T07:02:16.033Z,39.95
2023-03-02T07:04:42.495Z,41.00
2023-03-02T07:07:09.093Z,40.35
2023-03-02T07:09:35.607Z,42.75
2023-03-02T07:12:02.191Z,36.73
2023-03-02T07:14:28.658Z,43.40
2023-03-02T07:16:57.498Z,41.70
2023-03-02T07:19:24.549Z,45.45
2023-03-02T07:21:51.009Z,42.72
2023-03-02T07:24:17.518Z,38.33
2023-03-02T07:26:44.104Z,38.75
2023-03-02T07:29:10.573Z,40.78
2023-03-02T07:31:37.166Z,41.60
2023-03-02T07:34:03.745Z,47.83
2023-03-02T07:36:30.308Z,36.33
2023-03-02T07:38:57.537Z,44.13
2023-03-02T07:41:24.082Z,39.67
2023-03-02T07:43:50.524Z,41.78
2023-03-02T07:46:17.098Z,37.55
2023-03-02T07:48:43.664Z,43.43
2023-03-02T07:51:10.163Z,39.05
2023-03-02T07:53:36.690Z,42.05
2023-03-02T07:56:11.066Z,46.05
2023-03-02T07:58:38.061Z,42.05
2023-03-02T08:01:05.313Z,37.60
2023-03-02T08:03:32.321Z,43.92
2023-03-02T08:05:58.828Z,38.47
2023-03-02T08:08:25.304Z,39.47
2023-03-02T08:10:51.782Z,38.75
2023-03-02T08:13:18.306Z,35.40
2023-03-02T08:15:44.796Z,36.97
2023-03-02T08:18:11.301Z,40.67
2023-03-02T08:20:38.345Z,41.58
2023-03-02T08:23:04.894Z,35.67
2023-03-02T08:25:31.376Z,36.30
2023-03-02T08:27:57.825Z,34.13
2023-03-02T08:30:24.286Z,40.67
2023-03-02T08:32:50.849Z,36.80
2023-03-02T08:35:17.458Z,34.00
2023-03-02T08:37:43.960Z,39.97
2023-03-02T08:40:11.136Z,34.78
2023-03-02T08:42:37.618Z,39.70
2023-03-02T08:45:04.571Z,35.13
2023-03-02T08:47:32.390Z,36.58
2023-03-02T08:49:58.953Z,40.83
2023-03-02T08:52:25.620Z,32.85
2023-03-02T08:54:52.104Z,35.17
2023-03-02T08:57:19.753Z,32.47
2023-03-02T08:59:47.750Z,29.75
2023-03-02T09:02:14.230Z,35.13
2023-03-02T09:04:41.173Z,31.42
2023-03-02T09:07:07.863Z,36.20
2023-03-02T09:09:34.428Z,36.92
2023-03-02T09:12:00.921Z,42.58
2023-03-02T09:14:27.455Z,34.43
2023-03-02T09:16:54.504Z,33.85
2023-03-02T09:19:21.423Z,34.80
2023-03-02T09:21:48.065Z,33.60
2023-03-02T09:24:14.539Z,37.03
2023-03-02T09:26:41.145Z,33.77
2023-03-02T09:29:07.859Z,30.83
2023-03-02T09:31:35.696Z,30.45
2023-03-02T09:34:02.482Z,32.20
2023-03-02T09:36:29.024Z,33.08
2023-03-02T09:38:55.560Z,33.13
2023-03-02T09:41:21.994Z,29.65
2023-03-02T09:44:06.880Z,31.27
2023-03-02T09:46:57.049Z,27.90
2023-03-02T09:50:03.540Z,34.55
2023-03-02T09:52:35.270Z,30.13
2023-03-02T09:55:15.716Z,30.45
2023-03-02T09:57:42.950Z,28.80
2023-03-02T10:00:20.290Z,26.67
2023-03-02T10:02:53.918Z,31.35
2023-03-02T10:05:24.027Z,29.30
2023-03-02T10:07:50.516Z,30.95
2023-03-02T10:10:35.446Z,32.40
2023-03-02T10:13:21.702Z,26.75
2023-03-02T10:15:55.417Z,29.85
2023-03-02T10:18:44.224Z,31.80
2023-03-02T10:21:29.511Z,28.98
2023-03-02T10:23:56.236Z,28.90
2023-03-02T10:26:37.424Z,29.48
2023-03-02T10:29:47.124Z,30.90
2023-03-02T10:32:22.165Z,27.40
2023-03-02T10:34:50.591Z,27.63
2023-03-02T10:37:21.702Z,29.83
2023-03-02T10:39:49.299Z,29.27
2023-03-02T10:42:21.295Z,30.73
2023-03-02T10:44:54.432Z,22.40
2023-03-02T10:47:26.966Z,25.95
2023-03-02T10:49:54.986Z,25.13
2023-03-02T10:52:25.929Z,25.50
2023-03-02T10:55:05.152Z,22.85
2023-03-02T10:57:39.945Z,23.23
2023-03-02T11:00:18.162Z,27.50
2023-03-02T11:02:56.457Z,23.10
2023-03-02T11:05:34.746Z,25.58
2023-03-02T11:08:04.276Z,25.55
2023-03-02T11:10:34.377Z,23.30
2023-03-02T11:13:02.157Z,25.40
2023-03-02T11:15:46.400Z,31.73
2023-03-02T11:18:26.363Z,22.48
2023-03-02T11:21:05.584Z,22.63
2023-03-02T11:23:45.837Z,22.93
2023-03-02T11:26:24.814Z,24.33
2023-03-02T11:29:03.071Z,22.63
2023-03-02T11:31:36.911Z,22.30
2023-03-02T11:34:40.804Z,22.08
2023-03-02T11:37:16.300Z,18.90
2023-03-02T11:39:55.177Z,22.88
2023-03-02T11:42:29.577Z,22.17
2023-03-02T11:44:56.786Z,19.30
2023-03-02T11:47:23.806Z,17.15
2023-03-02T11:49:56.259Z,18.20
2023-03-02T11:52:26.258Z,17.80
2023-03-02T11:54:55.038Z,17.60
2023-03-02T11:57:28.037Z,15.95
2023-03-02T11:59:56.898Z,18.15
2023-03-02T12:02:23.600Z,16.00
2023-03-02T12:05:00.759Z,15.88
2023-03-02T12:07:28.016Z,16.30
2023-03-02T12:10:08.365Z,16.35
2023-03-02T12:12:38.771Z,19.10
2023-03-02T12:15:27.803Z,14.27
2023-03-02T12:17:54.390Z,14.90
2023-03-02T12:20:20.866Z,16.77
2023-03-02T12:22:47.420Z,18.08
2023-03-02T12:25:19.675Z,17.67
2023-03-02T12:27:49.632Z,18.47
2023-03-02T12:30:16.679Z,17.95
2023-03-02T12:33:03.188Z,15.40
2023-03-02T12:35:34.501Z,15.80
2023-03-02T12:38:24.967Z,13.88
2023-03-02T12:40:57.422Z,13.40
2023-03-02T12:43:29.334Z,13.02
2023-03-02T12:46:11.186Z,14.05
2023-03-02T12:48:45.818Z,16.10
2023-03-02T12:51:24.044Z,14.13
2023-03-02T12:54:05.952Z,13.40
2023-03-02T12:56:34.021Z,13.48
2023-03-02T12:59:00.659Z,13.02
2023-03-02T13:01:30.929Z,15.75
2023-03-02T13:03:58.262Z,15.13
2023-03-02T13:06:30.620Z,11.90
2023-03-02T13:08:59.974Z,13.90
2023-03-02T13:11:35.880Z,13.50
2023-03-02T13:14:17.402Z,13.30
2023-03-02T13:16:54.814Z,11.32
2023-03-02T13:19:22.318Z,10.67
2023-03-02T13:21:49.054Z,10.15
2023-03-02T13:24:35.988Z,11.40
2023-03-02T13:27:14.536Z,12.43
2023-03-02T13:29:41.240Z,13.80
2023-03-02T13:32:19.481Z,13.43
2023-03-02T13:34:49.674Z,11.85
2023-03-02T13:37:21.616Z,11.13
2023-03-02T13:39:56.531Z,10.75
2023-03-02T13:42:26.394Z,10.77
2023-03-02T13:44:52.902Z,10.27
2023-03-02T13:47:24.518Z,11.85
2023-03-02T13:49:51.132Z,11.93
2023-03-02T13:52:26.855Z,12.65
2023-03-02T13:54:54.127Z,12.90
2023-03-02T13:57:30.769Z,10.67
2023-03-02T13:59:59.179Z,9.57
2023-03-02T14:02:28.353Z,11.30
2023-03-02T14:04:55.569Z,10.05
2023-03-02T14:07:22.279Z,9.48
2023-03-02T14:09:49.245Z,9.93
2023-03-02T14:12:28.499Z,9.18
2023-03-02T14:14:58.466Z,8.18
2023-03-02T14:17:25.886Z,8.68
2023-03-02T14:19:53.086Z,8.48
2023-03-02T14:22:20.809Z,8.50
2023-03-02T14:24:47.619Z,9.00
2023-03-02T14:27:16.193Z,8.80
2023-03-02T14:29:45.256Z,7.10
2023-03-02T14:32:14.583Z,7.43
2023-03-02T14:34:41.803Z,8.93
2023-03-02T14:37:13.788Z,7.97
2023-03-02T14:39:43.427Z,8.48
2023-03-02T14:42:15.633Z,7.15
2023-03-02T14:44:43.237Z,6.85
2023-03-02T14:47:10.437Z,6.73
2023-03-02T14:49:37.659Z,7.45
2023-03-02T14:52:12.186Z,7.43
2023-03-02T14:54:42.604Z,6.63
2023-03-02T14:57:18.610Z,7.38
2023-03-02T14:59:45.175Z,7.57
2023-03-02T15:02:24.301Z,7.13
2023-03-02T15:04:56.088Z,6.78
2023-03-02T15:07:25.063Z,7.43
2023-03-02T15:09:51.627Z,7.28
2023-03-02T15:12:18.170Z,6.73
2023-03-02T15:14:44.719Z,6.32
2023-03-02T15:17:11.217Z,6.70
2023-03-02T15:19:37.777Z,6.80
2023-03-02T15:22:04.792Z,8.18
2023-03-02T15:24:33.161Z,8.30
2023-03-02T15:26:59.944Z,8.18
2023-03-02T15:29:26.551Z,10.00
2023-03-02T15:31:53.208Z,7.25
2023-03-02T15:34:19.839Z,9.20
2023-03-02T15:36:46.360Z,7.53
2023-03-02T15:39:14.365Z,7.35
2023-03-02T15:41:42.299Z,9.98
2023-03-02T15:44:21.577Z,6.50
2023-03-02T15:46:54.068Z,7.88
2023-03-02T15:49:23.031Z,7.10
2023-03-02T15:51:51.915Z,7.82
2023-03-02T15:54:19.259Z,6.47
2023-03-02T15:56:49.452Z,7.85
2023-03-02T15:59:16.070Z,7.78
2023-03-02T16:01:42.600Z,8.93
2023-03-02T16:04:09.274Z,8.40
2023-03-02T16:06:35.776Z,8.38
2023-03-02T16:09:03.028Z,8.00
2023-03-02T16:11:29.476Z,8.18
2023-03-02T16:13:56.133Z,8.20
2023-03-02T16:16:22.913Z,7.97
2023-03-02T16:18:50.712Z,10.30
2023-03-02T16:21:17.258Z,8.02
2023-03-02T16:23:43.712Z,8.73
2023-03-02T16:26:13.930Z,8.80
2023-03-02T16:28:40.816Z,8.32
2023-03-02T16:31:10.377Z,9.57
2023-03-02T16:33:38.039Z,9.10
2023-03-02T16:36:04.999Z,8.98
2023-03-02T16:38:31.492Z,10.33
2023-03-02T16:40:58.043Z,8.88
2023-03-02T16:43:24.745Z,10.60
2023-03-02T16:45:52.271Z,9.43
2023-03-02T16:48:18.814Z,8.82
2023-03-02T16:50:45.536Z,8.10
2023-03-02T16:53:13.505Z,10.02
2023-03-02T16:55:40.020Z,11.85
2023-03-02T16:58:06.889Z,12.50
2023-03-02T17:00:33.432Z,15.05
2023-03-02T17:03:00.748Z,14.53
2023-03-02T17:05:27.278Z,15.90
2023-03-02T17:07:53.878Z,16.00
2023-03-02T17:10:21.535Z,15.07
2023-03-02T17:12:47.977Z,17.35
2023-03-02T17:15:15.118Z,16.53
2023-03-02T17:17:41.693Z,16.65
2023-03-02T17:20:09.963Z,20.67
2023-03-02T17:22:36.438Z,19.92
2023-03-02T17:25:04.739Z,18.52
2023-03-02T17:27:31.493Z,18.27
2023-03-02T17:29:58.034Z,21.00
2023-03-02T17:32:24.700Z,19.88
2023-03-02T17:34:51.231Z,23.70
2023-03-02T17:37:17.963Z,21.55
2023-03-02T17:39:44.481Z,20.27
2023-03-02T17:42:10.996Z,21.58
2023-03-02T17:44:40.089Z,21.83
2023-03-02T17:47:08.337Z,25.33
2023-03-02T17:49:39.760Z,26.13
2023-03-02T17:52:06.853Z,27.17
2023-03-02T17:54:33.303Z,29.27
2023-03-02T17:56:59.807Z,26.38
2023-03-02T17:59:26.270Z,23.63
2023-03-02T18:01:52.719Z,25.80
2023-03-02T18:04:19.258Z,23.93
2023-03-02T18:06:45.823Z,23.10
2023-03-02T18:09:12.425Z,26.08
2023-03-02T18:11:41.319Z,26.80
2023-03-02T18:14:08.521Z,21.98
2023-03-02T18:16:35.578Z,23.27
2023-03-02T18:19:02.707Z,22.75
2023-03-02T18:21:29.419Z,25.38
2023-03-02T18:23:56.044Z,27.25
2023-03-02T18:26:22.873Z,25.40
2023-03-02T18:28:49.338Z,27.43
2023-03-02T18:31:17.650Z,25.02
2023-03-02T18:33:45.132Z,23.48
2023-03-02T18:36:11.987Z,23.58
2023-03-02T18:38:38.502Z,23.52
2023-03-02T18:41:06.601Z,21.43
2023-03-02T18:43:34.869Z,21.88
2023-03-02T18:46:04.243Z,24.20
2023-03-02T18:48:31.921Z,24.65
2023-03-02T18:50:58.997Z,22.70
2023-03-02T18:53:26.140Z,23.77
2023-03-02T18:55:55.960Z,32.92
2023-03-02T18:58:24.212Z,30.75
2023-03-02T19:00:53.856Z,32.80
2023-03-02T19:03:20.688Z,28.70
2023-03-02T19:05:47.201Z,27.63
2023-03-02T19:08:13.703Z,32.38
2023-03-02T19:10:42.260Z,30.77
2023-03-02T19:13:11.613Z,24.58
2023-03-02T19:15:42.272Z,24.50
2023-03-02T19:18:14.050Z,24.47
2023-03-02T19:20:40.488Z,25.63
2023-03-02T19:23:06.929Z,33.13
2023-03-02T19:25:33.890Z,29.80
2023-03-02T19:28:00.417Z,27.90
2023-03-02T19:30:27.740Z,27.33
2023-03-02T19:32:55.132Z,27.33
2023-03-02T19:35:23.952Z,27.90
2023-03-02T19:37:50.858Z,25.05
2023-03-02T19:40:19.266Z,24.48
2023-03-02T19:42:47.382Z,22.37
2023-03-02T19:45:18.998Z,23.00
2023-03-02T19:47:47.047Z,25.77
2023-03-02T19:50:15.792Z,27.33
2023-03-02T19:52:42.435Z,30.85
2023-03-02T19:55:10.631Z,26.27
2023-03-02T19:57:37.573Z,23.17
2023-03-02T20:00:07.287Z,22.77
2023-03-02T20:02:35.942Z,20.23
2023-03-02T20:05:03.644Z,20.55
2023-03-02T20:07:30.186Z,19.63
2023-03-02T20:09:56.692Z,19.48
2023-03-02T20:12:23.145Z,21.92
2023-03-02T20:14:51.178Z,22.42
2023-03-02T20:17:19.568Z,21.10
2023-03-02T20:19:47.228Z,23.90
2023-03-02T20:22:14.484Z,22.10
2023-03-02T20:24:41.910Z,22.40
2023-03-02T20:27:09.257Z,20.17
2023-03-02T20:29:37.233Z,23.85
2023-03-02T20:32:07.986Z,19.83
2023-03-02T20:34:35.640Z,22.48
2023-03-02T20:37:03.265Z,21.35
2023-03-02T20:39:33.043Z,23.33
2023-03-02T20:42:00.288Z,22.08
2023-03-02T20:44:30.868Z,21.57
2023-03-02T20:47:02.016Z,17.67
2023-03-02T20:49:30.065Z,18.48
2023-03-02T20:51:58.992Z,17.95
2023-03-02T20:54:30.040Z,21.70
2023-03-02T20:56:57.800Z,26.73
2023-03-02T20:59:25.339Z,22.85
2023-03-02T21:01:52.510Z,24.88
2023-03-02T21:04:19.149Z,23.60
2023-03-02T21:06:46.174Z,21.85
2023-03-02T21:09:13.524Z,25.53
2023-03-02T21:11:40.214Z,20.88
2023-03-02T21:14:07.036Z,24.85
2023-03-02T21:16:38.148Z,23.80
2023-03-02T21:19:08.639Z,22.23
2023-03-02T21:21:41.848Z,24.73
2023-03-02T21:24:16.760Z,25.40
2023-03-02T21:26:44.800Z,25.85
2023-03-02T21:29:12.770Z,23.15
2023-03-02T21:31:42.182Z,23.45
2023-03-02T21:34:08.630Z,25.13
2023-03-02T21:36:35.266Z,24.45
2023-03-02T21:39:04.129Z,27.42
2023-03-02T21:41:30.858Z,23.60
2023-03-02T21:43:57.828Z,23.52
2023-03-02T21:46:25.584Z,22.40
2023-03-02T21:48:52.457Z,25.48
2023-03-02T21:51:19.953Z,22.23
2023-03-02T21:53:46.883Z,22.92
2023-03-02T21:56:20.602Z,27.70
2023-03-02T21:58:48.765Z,22.60
2023-03-02T22:01:15.753Z,27.25
2023-03-02T22:03:43.331Z,27.27
2023-03-02T22:06:16.644Z,27.08
2023-03-02T22:08:43.164Z,25.85
2023-03-02T22:11:31.895Z,23.30
2023-03-02T22:14:02.972Z,26.20
2023-03-02T22:16:36.684Z,24.13
2023-03-02T22:19:17.741Z,26.15
2023-03-02T22:21:47.105Z,27.33
2023-03-02T22:24:31.243Z,25.47
2023-03-02T22:27:09.060Z,27.25
2023-03-02T22:29:41.655Z,27.50
2023-03-02T22:32:16.799Z,26.10
2023-03-02T22:34:44.562Z,30.58
2023-03-02T22:37:14.416Z,26.67
2023-03-02T22:39:42.237Z,31.00
2023-03-02T22:42:14.253Z,31.90
2023-03-02T22:44:40.871Z,27.73
2023-03-02T22:47:19.924Z,28.90
2023-03-02T22:49:47.962Z,32.87
2023-03-02T22:52:23.789Z,34.67
2023-03-02T22:54:50.581Z,31.80
2023-03-02T22:57:29.161Z,34.72
2023-03-02T23:00:15.857Z,31.30
2023-03-02T23:02:44.636Z,31.70
2023-03-02T23:05:29.671Z,32.38
2023-03-02T23:08:25.697Z,33.03
2023-03-02T23:10:55.413Z,30.38
2023-03-02T23:13:26.178Z,30.05
2023-03-02T23:15:54.638Z,29.53
2023-03-02T23:18:29.551Z,33.67
2023-03-02T23:20:56.151Z,31.70
2023-03-02T23:23:24.392Z,34.35
2023-03-02T23:25:50.948Z,35.30
2023-03-02T23:28:17.530Z,33.13
2023-03-02T23:30:44.089Z,29.42
2023-03-02T23:33:10.795Z,30.83
2023-03-02T23:35:37.252Z,32.60
2023-03-02T23:38:03.724Z,31.30
2023-03-02T23:40:30.206Z,33.43
2023-03-02T23:42:56.703Z,34.38
2023-03-02T23:45:23.153Z,29.45
2023-03-02T23:47:49.723Z,33.90
2023-03-02T23:50:16.176Z,31.02
2023-03-02T23:52:42.617Z,29.80
2023-03-02T23:55:09.796Z,28.13
2023-03-02T23:57:36.217Z,27.45
